createdAt,value
2022-10-17T00:00:30.073Z,4.90
2022-10-17T00:02:56.761Z,5.17
2022-10-17T00:05:23.713Z,5.27
2022-10-17T00:07:50.035Z,5.13
2022-10-17T00:10:17.314Z,5.43
2022-10-17T00:12:43.652Z,5.47
2022-10-17T00:15:14.270Z,6.00
2022-10-17T00:17:41.908Z,5.53
2022-10-17T00:20:08.756Z,5.80
2022-10-17T00:25:02.445Z,6.67
2022-10-17T00:27:29.299Z,5.37
2022-10-17T00:29:55.949Z,5.47
2022-10-17T00:32:22.387Z,5.60
2022-10-17T00:34:48.749Z,5.93
2022-10-17T00:37:15.113Z,5.07
2022-10-17T00:39:41.488Z,5.57
2022-10-17T00:42:12.561Z,5.33
2022-10-17T00:44:42.145Z,5.70
2022-10-17T00:47:13.929Z,5.70
2022-10-17T00:49:40.783Z,5.67
2022-10-17T00:52:19.736Z,5.33
2022-10-17T00:54:51.675Z,5.73
2022-10-17T00:57:18.177Z,5.67
2022-10-17T00:59:51.429Z,5.23
2022-10-17T01:02:20.931Z,5.40
2022-10-17T01:04:50.821Z,5.00
2022-10-17T01:07:17.277Z,5.20
2022-10-17T01:09:46.149Z,4.40
2022-10-17T01:12:25.678Z,5.80
2022-10-17T01:15:06.492Z,6.03
2022-10-17T01:17:59.104Z,6.03
2022-10-17T01:20:43.834Z,5.13
2022-10-17T01:23:46.045Z,5.80
2022-10-17T01:26:48.145Z,5.93
2022-10-17T01:29:47.083Z,5.60
2022-10-17T01:32:22.749Z,5.40
2022-10-17T01:34:57.882Z,5.77
2022-10-17T01:37:24.237Z,5.70
2022-10-17T01:40:03.078Z,7.00
2022-10-17T01:42:48.281Z,4.87
2022-10-17T01:45:28.340Z,5.70
2022-10-17T01:47:58.153Z,6.07
2022-10-17T01:50:32.340Z,5.13
2022-10-17T01:53:04.950Z,4.80
2022-10-17T01:55:41.841Z,4.83
2022-10-17T01:58:28.784Z,5.00
2022-10-17T02:00:58.456Z,4.73
2022-10-17T02:03:27.823Z,5.23
2022-10-17T02:05:54.649Z,5.20
2022-10-17T02:08:29.669Z,5.50
2022-10-17T02:11:08.918Z,5.33
2022-10-17T02:14:04.706Z,5.67
2022-10-17T02:16:53.852Z,4.87
2022-10-17T02:19:43.693Z,5.23
2022-10-17T02:22:30.528Z,6.40
2022-10-17T02:25:23.741Z,5.63
2022-10-17T02:28:21.045Z,5.87
2022-10-17T02:30:54.832Z,5.27
2022-10-17T02:33:27.067Z,4.67
2022-10-17T02:35:57.749Z,5.03
2022-10-17T02:38:26.929Z,4.73
2022-10-17T02:40:53.754Z,4.73
2022-10-17T02:43:21.753Z,4.63
2022-10-17T02:45:48.869Z,4.40
2022-10-17T02:48:31.097Z,4.20
2022-10-17T02:51:35.190Z,4.80
2022-10-17T02:54:12.802Z,4.40
2022-10-17T02:56:50.220Z,4.50
2022-10-17T02:59:20.178Z,5.03
2022-10-17T03:01:46.755Z,4.10
2022-10-17T03:04:14.618Z,4.33
2022-10-17T03:06:41.799Z,4.13
2022-10-17T03:09:08.768Z,3.40
2022-10-17T03:11:35.096Z,3.17
2022-10-17T03:14:01.565Z,3.50
2022-10-17T03:16:27.915Z,3.70
2022-10-17T03:18:54.339Z,3.43
2022-10-17T03:21:20.777Z,3.97
2022-10-17T03:23:47.442Z,4.50
2022-10-17T03:26:13.841Z,3.73
2022-10-17T03:28:40.340Z,3.70
2022-10-17T03:31:13.803Z,3.93
2022-10-17T03:33:40.205Z,3.93
2022-10-17T03:36:08.754Z,3.80
2022-10-17T03:38:35.590Z,3.63
2022-10-17T03:41:03.170Z,3.90
2022-10-17T03:43:30.464Z,4.07
2022-10-17T03:45:58.604Z,4.20
2022-10-17T03:48:25.810Z,3.93
2022-10-17T03:50:52.468Z,4.00
2022-10-17T03:53:19.129Z,3.60
2022-10-17T03:55:45.450Z,4.27
2022-10-17T03:58:11.842Z,3.97
2022-10-17T04:00:38.273Z,4.60
2022-10-17T04:03:04.920Z,4.70
2022-10-17T04:05:31.268Z,4.20
2022-10-17T04:07:59.793Z,3.83
2022-10-17T04:10:29.629Z,4.03
2022-10-17T04:12:58.885Z,4.60
2022-10-17T04:15:25.236Z,4.90
2022-10-17T04:17:51.733Z,4.20
2022-10-17T04:20:18.145Z,4.30
2022-10-17T04:22:44.607Z,4.57
2022-10-17T04:25:10.938Z,4.27
2022-10-17T04:27:37.308Z,4.30
2022-10-17T04:30:03.896Z,4.80
2022-10-17T04:32:30.693Z,4.57
2022-10-17T04:34:57.252Z,4.40
2022-10-17T04:37:23.727Z,4.40
2022-10-17T04:39:50.054Z,3.80
2022-10-17T04:42:16.441Z,3.80
2022-10-17T04:44:42.849Z,4.47
2022-10-17T04:47:09.217Z,3.73
2022-10-17T04:49:35.598Z,4.37
2022-10-17T04:52:01.989Z,4.20
2022-10-17T04:54:28.318Z,4.13
2022-10-17T04:56:54.644Z,4.10
2022-10-17T04:59:21.033Z,4.07
2022-10-17T05:01:49.308Z,4.63
2022-10-17T05:04:15.663Z,4.53
2022-10-17T05:06:42.097Z,4.50
2022-10-17T05:09:08.494Z,4.97
2022-10-17T05:11:34.825Z,4.03
2022-10-17T05:14:02.318Z,4.80
2022-10-17T05:16:30.157Z,4.07
2022-10-17T05:18:58.120Z,4.53
2022-10-17T05:21:26.230Z,4.23
2022-10-17T05:23:52.696Z,4.53
2022-10-17T05:26:19.921Z,5.13
2022-10-17T05:28:47.039Z,4.50
2022-10-17T05:31:13.859Z,5.00
2022-10-17T05:33:40.328Z,5.10
2022-10-17T05:36:07.828Z,5.30
2022-10-17T05:38:35.212Z,5.30
2022-10-17T05:41:04.657Z,5.00
2022-10-17T05:43:32.899Z,4.80
2022-10-17T05:45:59.254Z,5.30
2022-10-17T05:48:25.704Z,4.70
2022-10-17T05:50:58.997Z,5.20
2022-10-17T05:53:25.433Z,4.17
2022-10-17T05:55:56.336Z,4.53
2022-10-17T05:58:45.508Z,4.40
2022-10-17T06:01:12.782Z,4.90
2022-10-17T06:03:39.521Z,4.83
2022-10-17T06:06:08.107Z,4.40
2022-10-17T06:08:34.853Z,4.90
2022-10-17T06:11:04.904Z,4.60
2022-10-17T06:13:34.357Z,4.60
2022-10-17T06:16:00.894Z,4.97
2022-10-17T06:18:27.304Z,4.43
2022-10-17T06:20:53.705Z,4.50
2022-10-17T06:23:20.110Z,5.07
2022-10-17T06:25:46.451Z,4.00
2022-10-17T06:28:12.850Z,4.40
2022-10-17T06:30:40.754Z,4.73
2022-10-17T06:33:07.337Z,4.47
2022-10-17T06:35:33.723Z,4.77
2022-10-17T06:38:00.096Z,4.80
2022-10-17T06:40:26.494Z,4.73
2022-10-17T06:42:52.885Z,4.67
2022-10-17T06:45:19.209Z,4.87
2022-10-17T06:47:45.624Z,4.27
2022-10-17T06:50:11.992Z,5.17
2022-10-17T06:52:38.389Z,4.87
2022-10-17T06:55:05.104Z,5.23
2022-10-17T06:57:32.202Z,5.10
2022-10-17T06:59:58.808Z,5.00
2022-10-17T07:02:25.204Z,4.97
2022-10-17T07:04:51.568Z,5.30
2022-10-17T07:07:17.951Z,4.40
2022-10-17T07:09:44.391Z,4.40
2022-10-17T07:12:12.722Z,4.57
2022-10-17T07:14:39.053Z,5.60
2022-10-17T07:17:05.465Z,4.30
2022-10-17T07:19:31.827Z,4.20
2022-10-17T07:21:58.257Z,5.33
2022-10-17T07:24:24.585Z,5.50
2022-10-17T07:26:50.985Z,4.53
2022-10-17T07:29:17.333Z,4.90
2022-10-17T07:31:45.573Z,5.63
2022-10-17T07:34:11.924Z,4.43
2022-10-17T07:36:38.346Z,5.00
2022-10-17T07:39:04.952Z,5.03
2022-10-17T07:41:31.325Z,5.50
2022-10-17T07:43:58.029Z,4.97
2022-10-17T07:46:24.366Z,5.53
2022-10-17T07:48:51.128Z,5.27
2022-10-17T07:51:18.375Z,4.40
2022-10-17T07:53:48.715Z,4.93
2022-10-17T07:56:15.731Z,4.90
2022-10-17T07:58:42.134Z,5.47
2022-10-17T08:01:15.413Z,4.63
2022-10-17T08:03:44.297Z,4.90
2022-10-17T08:06:10.679Z,4.90
2022-10-17T08:08:37.155Z,4.90
2022-10-17T08:11:09.533Z,4.77
2022-10-17T08:13:37.045Z,4.60
2022-10-17T08:16:07.871Z,4.77
2022-10-17T08:18:35.491Z,4.33
2022-10-17T08:21:06.229Z,4.57
2022-10-17T08:23:32.762Z,4.57
2022-10-17T08:26:00.904Z,4.60
2022-10-17T08:28:27.710Z,4.73
2022-10-17T08:30:54.138Z,4.03
2022-10-17T08:33:20.887Z,4.10
2022-10-17T08:35:47.217Z,4.30
2022-10-17T08:38:14.135Z,4.60
2022-10-17T08:40:42.757Z,4.43
2022-10-17T08:43:24.613Z,3.97
2022-10-17T08:46:06.489Z,3.90
2022-10-17T08:48:38.345Z,4.50
2022-10-17T08:51:13.915Z,4.57
2022-10-17T08:53:48.119Z,4.70
2022-10-17T08:56:37.005Z,4.53
2022-10-17T08:59:23.726Z,4.67
2022-10-17T09:02:14.857Z,4.87
2022-10-17T09:04:49.865Z,4.83
2022-10-17T09:07:27.980Z,4.37
2022-10-17T09:10:11.509Z,4.43
2022-10-17T09:12:54.683Z,4.10
2022-10-17T09:15:40.311Z,4.03
2022-10-17T09:18:19.827Z,4.23
2022-10-17T09:21:06.493Z,3.80
2022-10-17T09:24:03.775Z,3.43
2022-10-17T09:26:38.795Z,4.03
2022-10-17T09:29:15.297Z,4.83
2022-10-17T09:31:49.759Z,4.17
2022-10-17T09:34:16.269Z,3.60
2022-10-17T09:36:43.944Z,4.43
2022-10-17T09:39:24.746Z,3.93
2022-10-17T09:41:54.093Z,4.13
2022-10-17T09:44:29.108Z,4.10
2022-10-17T09:47:22.604Z,4.10
2022-10-17T09:49:50.001Z,3.47
2022-10-17T09:52:27.265Z,4.53
2022-10-17T09:55:06.475Z,4.13
2022-10-17T09:57:55.646Z,3.73
2022-10-17T10:00:44.406Z,4.10
2022-10-17T10:03:27.373Z,4.50
2022-10-17T10:06:05.667Z,4.03
2022-10-17T10:08:53.052Z,3.37
2022-10-17T10:11:24.758Z,4.10
2022-10-17T10:13:51.860Z,3.70
2022-10-17T10:16:32.159Z,3.40
2022-10-17T10:18:58.723Z,4.00
2022-10-17T10:21:27.735Z,3.70
2022-10-17T10:24:08.376Z,3.53
2022-10-17T10:26:48.791Z,4.03
2022-10-17T10:29:34.539Z,3.60
2022-10-17T10:32:11.016Z,3.40
2022-10-17T10:34:43.252Z,4.47
2022-10-17T10:37:21.765Z,4.80
2022-10-17T10:39:54.827Z,3.70
2022-10-17T10:42:41.198Z,3.70
2022-10-17T10:45:29.256Z,4.13
2022-10-17T10:48:23.517Z,3.97
2022-10-17T10:50:53.036Z,4.00
2022-10-17T10:53:22.063Z,4.10
2022-10-17T10:56:14.475Z,3.83
2022-10-17T10:58:53.082Z,4.00
2022-10-17T11:01:29.754Z,4.00
2022-10-17T11:04:16.111Z,3.80
2022-10-17T11:06:45.332Z,4.47
2022-10-17T11:09:36.562Z,3.67
2022-10-17T11:12:28.023Z,3.87
2022-10-17T11:15:16.962Z,4.00
2022-10-17T11:18:04.931Z,4.00
2022-10-17T11:20:38.601Z,4.00
2022-10-17T11:23:19.818Z,4.47
2022-10-17T11:25:49.605Z,3.43
2022-10-17T11:28:18.830Z,3.50
2022-10-17T11:30:50.185Z,3.40
2022-10-17T11:33:24.373Z,3.87
2022-10-17T11:35:54.404Z,4.80
2022-10-17T11:38:51.918Z,4.90
2022-10-17T11:41:32.227Z,4.60
2022-10-17T11:44:28.077Z,4.07
2022-10-17T11:47:02.359Z,4.03
2022-10-17T11:49:38.250Z,4.37
2022-10-17T11:52:44.363Z,4.10
2022-10-17T11:55:21.924Z,4.30
2022-10-17T11:57:56.260Z,4.37
2022-10-17T12:00:54.294Z,3.67
2022-10-17T12:03:45.498Z,4.40
2022-10-17T12:06:15.292Z,4.17
2022-10-17T12:08:51.890Z,3.80
2022-10-17T12:11:42.685Z,4.40
2022-10-17T12:14:34.187Z,5.23
2022-10-17T12:17:02.502Z,5.40
2022-10-17T12:19:34.157Z,5.40
2022-10-17T12:22:27.063Z,6.40
2022-10-17T12:25:01.953Z,6.70
2022-10-17T12:27:36.928Z,6.60
2022-10-17T12:30:12.544Z,6.10
2022-10-17T12:33:05.702Z,6.53
2022-10-17T12:35:35.561Z,6.07
2022-10-17T12:38:15.059Z,6.37
2022-10-17T12:40:50.564Z,5.80
2022-10-17T12:43:16.968Z,6.70
2022-10-17T12:45:51.614Z,6.60
2022-10-17T12:48:36.349Z,6.80
2022-10-17T12:51:37.386Z,6.13
2022-10-17T12:54:11.883Z,6.20
2022-10-17T12:56:42.381Z,6.30
2022-10-17T12:59:15.795Z,6.47
2022-10-17T13:01:46.591Z,7.00
2022-10-17T13:04:13.301Z,6.83
2022-10-17T13:06:48.078Z,6.70
2022-10-17T13:09:26.523Z,7.50
2022-10-17T13:11:54.348Z,9.47
2022-10-17T13:14:23.195Z,10.17
2022-10-17T13:16:56.290Z,9.90
2022-10-17T13:19:26.341Z,8.93
2022-10-17T13:22:06.500Z,9.73
2022-10-17T13:24:39.003Z,10.10
2022-10-17T13:27:21.053Z,9.90
2022-10-17T13:29:47.571Z,9.87
2022-10-17T13:32:13.945Z,9.87
2022-10-17T13:34:40.345Z,9.90
2022-10-17T13:37:12.367Z,9.80
2022-10-17T13:39:55.402Z,8.87
2022-10-17T13:42:26.760Z,9.53
2022-10-17T13:44:53.730Z,9.90
2022-10-17T13:47:29.775Z,14.20
2022-10-17T13:49:57.754Z,11.93
2022-10-17T13:52:28.315Z,10.50
2022-10-17T13:54:56.293Z,9.10
2022-10-17T13:57:31.160Z,10.90
2022-10-17T14:00:09.866Z,9.37
2022-10-17T14:02:38.265Z,9.70
2022-10-17T14:05:17.240Z,8.83
2022-10-17T14:10:38.700Z,9.20
2022-10-17T14:13:08.181Z,9.20
2022-10-17T14:15:36.692Z,9.23
2022-10-17T14:18:08.307Z,8.80
2022-10-17T14:23:35.441Z,9.23
2022-10-17T14:26:06.686Z,9.20
2022-10-17T14:28:34.192Z,9.73
2022-10-17T14:31:21.397Z,9.40
2022-10-17T14:33:51.133Z,10.30
2022-10-17T14:36:19.261Z,10.13
2022-10-17T14:38:51.987Z,10.43
2022-10-17T14:41:47.297Z,10.57
2022-10-17T14:44:26.916Z,9.93
2022-10-17T14:46:57.771Z,10.47
2022-10-17T14:49:39.137Z,11.47
2022-10-17T14:52:18.763Z,11.50
2022-10-17T14:54:47.728Z,10.80
2022-10-17T14:57:19.607Z,11.13
2022-10-17T14:59:54.803Z,11.00
2022-10-17T15:02:23.581Z,11.27
2022-10-17T15:04:50.031Z,12.07
2022-10-17T15:07:17.715Z,11.70
2022-10-17T15:09:45.313Z,12.03
2022-10-17T15:12:17.757Z,11.40
2022-10-17T15:14:44.997Z,13.50
2022-10-17T15:17:18.503Z,12.10
2022-10-17T15:19:44.852Z,12.90
2022-10-17T15:22:11.377Z,12.80
2022-10-17T15:24:37.782Z,13.23
2022-10-17T15:27:14.047Z,14.03
2022-10-17T15:29:40.396Z,14.37
2022-10-17T15:32:06.806Z,14.67
2022-10-17T15:34:33.133Z,15.63
2022-10-17T15:37:00.548Z,15.77
2022-10-17T15:39:27.013Z,16.17
2022-10-17T15:41:53.458Z,15.13
2022-10-17T15:44:19.792Z,14.50
2022-10-17T15:46:46.693Z,16.37
2022-10-17T15:49:17.150Z,15.30
2022-10-17T15:51:43.529Z,14.97
2022-10-17T15:54:10.003Z,15.13
2022-10-17T15:56:52.947Z,14.53
2022-10-17T15:59:27.911Z,15.10
2022-10-17T16:01:54.293Z,12.90
2022-10-17T16:04:20.693Z,14.80
2022-10-17T16:06:47.164Z,12.70
2022-10-17T16:09:13.561Z,12.43
2022-10-17T16:11:42.465Z,12.33
2022-10-17T16:14:14.473Z,11.70
2022-10-17T16:16:41.163Z,12.73
2022-10-17T16:19:07.987Z,12.60
2022-10-17T16:21:37.056Z,13.40
2022-10-17T16:24:03.950Z,12.60
2022-10-17T16:26:30.853Z,13.30
2022-10-17T16:28:58.087Z,12.57
2022-10-17T16:31:31.171Z,13.10
2022-10-17T16:33:58.896Z,13.20
2022-10-17T16:36:25.361Z,12.53
2022-10-17T16:38:54.027Z,13.70
2022-10-17T16:41:26.382Z,13.20
2022-10-17T16:43:55.499Z,14.43
2022-10-17T16:46:23.712Z,12.43
2022-10-17T16:48:50.317Z,13.70
2022-10-17T16:51:18.792Z,11.93
2022-10-17T16:53:46.669Z,13.50
2022-10-17T16:56:19.087Z,12.00
2022-10-17T16:58:45.949Z,12.17
2022-10-17T17:01:15.181Z,12.47
2022-10-17T17:03:43.280Z,13.00
2022-10-17T17:06:13.759Z,18.40
2022-10-17T17:08:40.233Z,21.80
2022-10-17T17:11:07.722Z,15.27
2022-10-17T17:13:34.352Z,11.57
2022-10-17T17:16:10.199Z,11.00
2022-10-17T17:18:37.289Z,12.73
2022-10-17T17:21:06.289Z,11.37
2022-10-17T17:23:34.939Z,12.67
2022-10-17T17:26:07.283Z,12.37
2022-10-17T17:28:34.890Z,12.50
2022-10-17T17:31:01.937Z,12.20
2022-10-17T17:33:29.965Z,11.33
2022-10-17T17:35:58.209Z,12.70
2022-10-17T17:38:24.679Z,11.80
2022-10-17T17:40:51.367Z,12.70
2022-10-17T17:43:18.826Z,12.37
2022-10-17T17:45:45.690Z,12.60
2022-10-17T17:48:12.625Z,13.40
2022-10-17T17:50:40.549Z,15.70
2022-10-17T17:53:08.529Z,15.60
2022-10-17T17:55:34.906Z,15.37
2022-10-17T17:58:01.491Z,14.50
2022-10-17T18:00:28.880Z,15.03
2022-10-17T18:02:56.422Z,19.43
2022-10-17T18:05:23.010Z,19.87
2022-10-17T18:07:49.438Z,17.30
2022-10-17T18:10:16.070Z,17.60
2022-10-17T18:12:42.789Z,17.70
2022-10-17T18:15:09.563Z,17.97
2022-10-17T18:17:36.125Z,44.10
2022-10-17T18:20:03.486Z,18.27
2022-10-17T18:22:30.189Z,17.70
2022-10-17T18:24:56.863Z,18.40
2022-10-17T18:27:23.270Z,19.03
2022-10-17T18:29:51.073Z,19.20
2022-10-17T18:32:17.595Z,18.87
2022-10-17T18:34:43.934Z,19.07
2022-10-17T18:37:10.464Z,19.57
2022-10-17T18:39:37.157Z,19.90
2022-10-17T18:42:05.771Z,14.33
2022-10-17T18:44:40.945Z,14.93
2022-10-17T18:47:07.411Z,10.80
2022-10-17T18:49:33.923Z,7.07
2022-10-17T18:52:00.355Z,5.43
2022-10-17T18:54:26.846Z,5.03
2022-10-17T18:56:54.462Z,4.10
2022-10-17T18:59:21.332Z,3.30
2022-10-17T19:01:48.075Z,4.40
2022-10-17T19:04:14.973Z,5.00
2022-10-17T19:06:41.989Z,5.73
2022-10-17T19:09:11.061Z,4.67
2022-10-17T19:11:38.409Z,4.23
2022-10-17T19:14:12.576Z,4.23
2022-10-17T19:16:41.919Z,4.40
2022-10-17T19:19:19.954Z,5.47
2022-10-17T19:21:46.968Z,4.10
2022-10-17T19:24:16.387Z,4.60
2022-10-17T19:26:44.093Z,4.80
2022-10-17T19:29:13.936Z,5.60
2022-10-17T19:31:40.683Z,5.10
2022-10-17T19:34:07.078Z,4.60
2022-10-17T19:39:26.552Z,3.77
2022-10-17T19:41:52.970Z,4.40
2022-10-17T19:44:19.721Z,4.20
2022-10-17T19:46:46.919Z,4.33
2022-10-17T19:49:13.660Z,4.27
2022-10-17T19:51:40.095Z,4.60
2022-10-17T19:54:07.123Z,5.23
2022-10-17T19:56:37.669Z,4.20
2022-10-17T19:59:07.500Z,4.00
2022-10-17T20:01:36.244Z,3.60
2022-10-17T20:04:02.800Z,3.90
2022-10-17T20:06:29.466Z,4.20
2022-10-17T20:08:56.128Z,4.10
2022-10-17T20:11:25.021Z,3.63
2022-10-17T20:13:52.269Z,3.50
2022-10-17T20:16:24.321Z,4.97
2022-10-17T20:18:52.504Z,4.30
2022-10-17T20:21:22.997Z,3.80
2022-10-17T20:23:50.561Z,4.77
2022-10-17T20:26:33.242Z,4.50
2022-10-17T20:29:08.334Z,5.47
2022-10-17T20:31:35.031Z,5.10
2022-10-17T20:34:01.547Z,5.03
2022-10-17T20:36:27.902Z,4.50
2022-10-17T20:38:58.408Z,4.80
2022-10-17T20:41:26.535Z,4.90
2022-10-17T20:43:55.296Z,4.93
2022-10-17T20:46:35.970Z,4.47
2022-10-17T20:49:05.577Z,4.43
2022-10-17T20:51:32.487Z,3.87
2022-10-17T20:53:59.333Z,4.00
2022-10-17T20:56:28.427Z,4.17
2022-10-17T20:58:58.658Z,3.50
2022-10-17T21:01:26.295Z,3.43
2022-10-17T21:03:53.507Z,3.80
2022-10-17T21:06:20.495Z,4.03
2022-10-17T21:08:48.277Z,4.73
2022-10-17T21:11:19.962Z,3.13
2022-10-17T21:13:47.868Z,3.20
2022-10-17T21:16:16.474Z,3.43
2022-10-17T21:18:43.606Z,3.50
2022-10-17T21:21:14.634Z,3.30
2022-10-17T21:23:43.313Z,3.23
2022-10-17T21:26:12.394Z,3.43
2022-10-17T21:28:40.287Z,4.17
2022-10-17T21:31:09.005Z,3.77
2022-10-17T21:33:35.436Z,4.80
2022-10-17T21:36:01.798Z,4.93
2022-10-17T21:38:28.159Z,4.13
2022-10-17T21:40:56.123Z,4.40
2022-10-17T21:43:22.671Z,5.43
2022-10-17T21:45:49.132Z,5.33
2022-10-17T21:48:15.486Z,5.67
2022-10-17T21:50:42.098Z,5.70
2022-10-17T21:53:08.457Z,5.83
2022-10-17T21:55:38.056Z,7.10
2022-10-17T21:58:04.828Z,6.03
2022-10-17T22:00:31.280Z,6.80
2022-10-17T22:02:57.673Z,6.57
2022-10-17T22:05:24.114Z,7.57
2022-10-17T22:07:50.583Z,7.47
2022-10-17T22:10:17.058Z,8.50
2022-10-17T22:12:43.389Z,7.87
2022-10-17T22:15:09.848Z,8.63
2022-10-17T22:17:36.261Z,7.97
2022-10-17T22:20:02.703Z,8.07
2022-10-17T22:22:30.428Z,8.13
2022-10-17T22:24:56.865Z,7.53
2022-10-17T22:27:23.313Z,7.90
2022-10-17T22:29:49.707Z,8.83
2022-10-17T22:32:20.044Z,8.60
2022-10-17T22:34:49.229Z,8.37
2022-10-17T22:37:15.732Z,8.67
2022-10-17T22:39:42.242Z,8.77
2022-10-17T22:42:08.618Z,8.50
2022-10-17T22:44:35.082Z,9.13
2022-10-17T22:47:01.460Z,9.30
2022-10-17T22:49:27.840Z,9.73
2022-10-17T22:51:54.250Z,8.20
2022-10-17T22:54:20.682Z,9.07
2022-10-17T22:56:47.079Z,8.20
2022-10-17T22:59:13.467Z,9.40
2022-10-17T23:01:39.889Z,9.73
2022-10-17T23:04:06.306Z,10.47
2022-10-17T23:06:32.705Z,9.50
2022-10-17T23:08:59.327Z,8.80
2022-10-17T23:11:25.673Z,8.63
2022-10-17T23:13:52.151Z,9.40
2022-10-17T23:16:18.552Z,10.00
2022-10-17T23:18:45.150Z,10.77
2022-10-17T23:21:11.821Z,10.37
2022-10-17T23:23:38.522Z,10.70
2022-10-17T23:26:13.974Z,10.83
2022-10-17T23:28:42.073Z,11.33
2022-10-17T23:31:17.580Z,10.87
2022-10-17T23:33:45.778Z,10.80
2022-10-17T23:36:14.022Z,10.93
2022-10-17T23:38:41.784Z,10.47
2022-10-17T23:41:08.905Z,12.60
2022-10-17T23:43:35.337Z,11.93
2022-10-17T23:46:02.391Z,12.27
2022-10-17T23:48:29.616Z,12.70
2022-10-17T23:50:56.426Z,12.37
2022-10-17T23:53:24.147Z,12.77
2022-10-17T23:55:51.220Z,11.60
2022-10-17T23:58:17.805Z,11.87
